Time;durP1;ratioP1;P1;durP2;ratioP2;P2;SDS_P1;SDS_P2;PMS_P1;PMS_P2;Temp;Humidity;BMP_temperature;BMP_pressure;BME280_temperature;BME280_humidity;BME280_pressure;Samples;Min_cycle;Max_cycle;Signal;HPM_P1;HPM_P2
2023/07/18 00:00:17;;;;;;;5.85;3.10;;;;;;;19.73;90.84;100547.44;5034663;28;20120;-87
2023/07/18 00:02:43;;;;;;;6.30;2.65;;;;;;;19.70;91.24;100552.25;5034628;28;20065;-90
2023/07/18 00:05:13;;;;;;;5.82;3.17;;;;;;;19.69;91.49;100555.69;5034110;28;20056;-89
2023/07/18 00:07:42;;;;;;;4.95;2.80;;;;;;;19.68;92.06;100554.91;5033638;28;20056;-88
2023/07/18 00:10:11;;;;;;;4.30;2.80;;;;;;;19.69;92.16;100561.47;5035030;28;20083;-89
2023/07/18 00:12:37;;;;;;;6.28;2.67;;;;;;;19.75;92.22;100562.19;5034509;28;20049;-88
2023/07/18 00:15:09;;;;;;;10.27;2.55;;;;;;;19.78;92.23;100575.56;5016758;28;20425;-88
2023/07/18 00:17:35;;;;;;;5.93;2.90;;;;;;;19.81;92.48;100580.25;5034708;28;20378;-89
2023/07/18 00:20:02;;;;;;;4.22;2.40;;;;;;;19.80;93.18;100564.22;5034667;28;20415;-88
2023/07/18 00:22:27;;;;;;;4.47;2.33;;;;;;;19.83;93.50;100581.28;5033100;28;20498;-89
2023/07/18 00:24:52;;;;;;;2.88;2.30;;;;;;;19.84;94.46;100567.56;5036699;28;20057;-88
2023/07/18 00:27:18;;;;;;;5.35;3.15;;;;;;;19.88;94.37;100553.53;5057838;28;20048;-87
2023/07/18 00:29:43;;;;;;;6.80;2.65;;;;;;;19.89;94.79;100558.78;5058728;28;20033;-82
2023/07/18 00:32:10;;;;;;;7.07;3.08;;;;;;;19.91;94.82;100561.09;5058847;28;20875;-86
2023/07/18 00:34:36;;;;;;;7.10;3.20;;;;;;;19.91;95.31;100552.41;5057771;28;20025;-87
2023/07/18 00:37:01;;;;;;;6.82;2.35;;;;;;;19.92;95.11;100562.69;5058951;28;20049;-88
2023/07/18 00:39:27;;;;;;;5.05;2.40;;;;;;;19.93;95.69;100573.78;5058294;28;20022;-87
2023/07/18 00:41:52;;;;;;;7.40;2.53;;;;;;;19.92;96.36;100585.88;5041169;28;20036;-89
2023/07/18 00:44:18;;;;;;;6.68;2.78;;;;;;;19.93;96.43;100596.16;5036118;28;20104;-88
2023/07/18 00:46:43;;;;;;;7.10;2.38;;;;;;;19.95;96.83;100599.34;5036786;28;20025;-89
2023/07/18 00:49:09;;;;;;;6.07;2.38;;;;;;;19.98;97.42;100595.31;5034920;28;20029;-87
2023/07/18 00:51:35;;;;;;;6.75;2.75;;;;;;;19.94;97.71;100604.34;5036286;28;20017;-88
2023/07/18 00:54:00;;;;;;;4.00;2.90;;;;;;;19.92;98.98;100620.69;5034555;28;20029;-88
2023/07/18 00:56:26;;;;;;;3.78;2.15;;;;;;;19.84;99.41;100625.56;5034877;28;20493;-89
2023/07/18 00:58:51;;;;;;;4.55;2.70;;;;;;;19.74;100.00;100624.41;5032754;28;20033;-88
2023/07/18 01:01:17;;;;;;;6.75;3.00;;;;;;;19.65;100.00;100627.72;5032885;28;20379;-89
2023/07/18 01:03:42;;;;;;;9.40;2.70;;;;;;;19.52;100.00;100629.19;5033938;28;20060;-89
2023/07/18 01:06:08;;;;;;;5.03;2.00;;;;;;;19.29;100.00;100630.03;5034019;28;20032;-89
2023/07/18 01:08:34;;;;;;;5.10;2.60;;;;;;;19.10;100.00;100645.25;5034199;28;20119;-88
2023/07/18 01:10:59;;;;;;;8.13;2.53;;;;;;;18.94;100.00;100639.66;5033670;28;20497;-88
2023/07/18 01:13:25;;;;;;;5.57;2.30;;;;;;;18.84;100.00;100642.13;5033481;28;20467;-87
2023/07/18 01:15:50;;;;;;;5.60;2.28;;;;;;;18.69;100.00;100638.84;5038677;28;20104;-87
2023/07/18 01:18:15;;;;;;;5.95;2.58;;;;;;;18.55;100.00;100629.25;5040810;28;20024;-88
2023/07/18 01:20:44;;;;;;;5.75;2.60;;;;;;;18.53;100.00;100634.00;5040205;28;20024;-87
2023/07/18 01:23:10;;;;;;;4.63;2.60;;;;;;;18.45;100.00;100638.84;5040332;28;20323;-89
2023/07/18 01:25:36;;;;;;;7.00;2.28;;;;;;;18.33;100.00;100638.13;5040529;28;20520;-89
2023/07/18 01:28:03;;;;;;;4.57;2.72;;;;;;;18.23;100.00;100640.56;5038654;28;20056;-88
2023/07/18 01:30:29;;;;;;;6.55;2.58;;;;;;;18.13;100.00;100644.31;5040109;28;20437;-88
2023/07/18 01:32:56;;;;;;;5.03;2.65;;;;;;;18.05;100.00;100652.81;5040348;28;20083;-89
2023/07/18 01:35:25;;;;;;;4.18;2.60;;;;;;;18.02;100.00;100653.09;5038670;28;20029;-88
2023/07/18 01:37:52;;;;;;;9.95;2.80;;;;;;;17.96;100.00;100652.34;5040175;28;20029;-88
2023/07/18 01:40:20;;;;;;;3.83;2.47;;;;;;;17.93;100.00;100653.44;5040088;28;20041;-87
2023/07/18 01:42:45;;;;;;;4.45;2.03;;;;;;;17.91;100.00;100656.84;5040110;28;20117;-87
2023/07/18 01:45:11;;;;;;;6.65;3.22;;;;;;;17.86;100.00;100666.34;5039802;28;20454;-88
2023/07/18 01:47:38;;;;;;;5.90;2.53;;;;;;;17.78;100.00;100660.34;5040056;28;20029;-87
2023/07/18 01:50:05;;;;;;;4.85;2.28;;;;;;;17.71;100.00;100666.69;5042447;28;20079;-86
2023/07/18 01:52:34;;;;;;;5.88;2.72;;;;;;;17.65;100.00;100668.84;5042558;28;20040;-87
2023/07/18 01:55:02;;;;;;;5.32;2.30;;;;;;;17.56;100.00;100663.38;5040022;28;20036;-84
2023/07/18 01:57:41;;;;;;;6.80;2.55;;;;;;;17.48;100.00;100667.34;5040201;28;20454;-90
2023/07/18 02:00:11;;;;;;;5.72;2.47;;;;;;;17.44;100.00;100655.28;5023732;28;20032;-89
2023/07/18 02:02:38;;;;;;;7.78;3.47;;;;;;;17.39;100.00;100660.53;5038970;28;20112;-88
2023/07/18 02:05:04;;;;;;;4.43;2.53;;;;;;;17.31;100.00;100671.06;5039885;28;20025;-89
2023/07/18 02:07:30;;;;;;;6.40;2.50;;;;;;;17.27;100.00;100666.88;5039752;28;20021;-89
2023/07/18 02:09:56;;;;;;;6.03;2.20;;;;;;;17.12;100.00;100660.63;5039949;28;20033;-90
2023/07/18 02:12:21;;;;;;;5.85;2.35;;;;;;;17.16;100.00;100678.47;5038542;28;20159;-88
2023/07/18 02:14:46;;;;;;;4.40;2.38;;;;;;;17.08;100.00;100689.81;5039790;28;20029;-89
2023/07/18 02:17:12;;;;;;;5.13;2.53;;;;;;;16.99;100.00;100690.84;5039434;28;20053;-88
2023/07/18 02:19:37;;;;;;;4.30;2.38;;;;;;;16.92;100.00;100691.41;5038449;28;20032;-88
2023/07/18 02:22:03;;;;;;;4.00;2.17;;;;;;;16.79;100.00;100694.06;5039738;28;20021;-89
2023/07/18 02:24:29;;;;;;;5.43;2.35;;;;;;;16.77;100.00;100702.47;5038700;28;20466;-89
2023/07/18 02:26:54;;;;;;;5.75;2.60;;;;;;;16.70;100.00;100710.88;5035985;28;20037;-88
2023/07/18 02:29:20;;;;;;;5.85;2.88;;;;;;;16.63;100.00;100714.28;5035517;28;20116;-87
2023/07/18 02:31:46;;;;;;;5.47;2.80;;;;;;;16.43;100.00;100706.66;5035505;28;20029;-88
2023/07/18 02:34:11;;;;;;;4.82;2.35;;;;;;;16.45;100.00;100724.22;5036400;28;20070;-87
2023/07/18 02:36:37;;;;;;;5.60;2.78;;;;;;;16.35;100.00;100729.44;5018887;28;20040;-89
2023/07/18 02:39:06;;;;;;;4.57;2.50;;;;;;;16.28;100.00;100735.75;5036374;28;20029;-88
2023/07/18 02:41:32;;;;;;;8.77;2.55;;;;;;;16.21;100.00;100723.91;5036470;28;20095;-88
2023/07/18 02:43:57;;;;;;;5.95;2.70;;;;;;;16.15;100.00;100734.69;5036478;28;20422;-88
2023/07/18 02:46:22;;;;;;;6.88;2.55;;;;;;;16.10;100.00;100739.13;5047780;28;20048;-88
2023/07/18 02:48:48;;;;;;;5.10;2.80;;;;;;;16.06;100.00;100735.69;5058050;28;20044;-88
2023/07/18 02:51:13;;;;;;;6.93;2.92;;;;;;;16.02;100.00;100741.72;5060206;28;20035;-85
2023/07/18 02:53:39;;;;;;;4.80;2.70;;;;;;;15.97;100.00;100747.47;5053227;28;20034;-88
2023/07/18 02:56:05;;;;;;;4.47;2.25;;;;;;;15.86;100.00;100747.47;5037448;28;20029;-88
2023/07/18 02:58:30;;;;;;;5.93;2.45;;;;;;;15.86;100.00;100750.34;5037131;28;20025;-87
2023/07/18 03:00:56;;;;;;;7.32;2.50;;;;;;;15.83;100.00;100743.50;5035184;28;20596;-88
2023/07/18 03:03:22;;;;;;;8.32;2.40;;;;;;;15.80;100.00;100750.31;5035409;28;20394;-88
2023/07/18 03:05:52;;;;;;;8.15;2.70;;;;;;;15.77;100.00;100753.44;5034805;28;20030;-87
2023/07/18 03:08:17;;;;;;;7.13;2.92;;;;;;;15.69;100.00;100762.59;5036096;28;20104;-89
2023/07/18 03:10:43;;;;;;;5.90;2.70;;;;;;;15.67;100.00;100756.53;5036259;28;20133;-88
2023/07/18 03:13:08;;;;;;;3.63;2.47;;;;;;;15.64;100.00;100762.56;5036320;28;20489;-89
2023/07/18 03:15:34;;;;;;;4.75;2.63;;;;;;;15.59;100.00;100769.09;5034642;28;20033;-89
2023/07/18 03:18:00;;;;;;;5.13;2.55;;;;;;;15.56;100.00;100764.34;5036048;28;20040;-88
2023/07/18 03:20:26;;;;;;;5.50;2.22;;;;;;;15.53;100.00;100759.59;5035628;28;20037;-88
2023/07/18 03:22:52;;;;;;;6.95;2.58;;;;;;;15.55;100.00;100765.63;5036231;28;20106;-88
2023/07/18 03:25:19;;;;;;;6.38;2.60;;;;;;;15.56;100.00;100767.22;5035336;28;20056;-88
2023/07/18 03:27:45;;;;;;;8.45;2.55;;;;;;;15.49;100.00;100768.47;5034557;28;20112;-87
2023/07/18 03:30:12;;;;;;;8.57;3.15;;;;;;;15.48;100.00;100771.88;5035804;28;20049;-88
2023/07/18 03:32:38;;;;;;;5.63;2.78;;;;;;;15.50;100.00;100775.03;5035442;28;20026;-87
2023/07/18 03:35:04;;;;;;;5.40;2.90;;;;;;;15.37;100.00;100754.53;5034620;28;20111;-88
2023/07/18 03:37:30;;;;;;;5.18;3.00;;;;;;;15.51;100.00;100770.84;5035974;28;20025;-87
2023/07/18 03:39:55;;;;;;;2.58;2.35;;;;;;;15.50;100.00;100772.94;5035124;28;20036;-87
2023/07/18 03:42:21;;;;;;;6.97;2.80;;;;;;;15.48;100.00;100772.66;5035296;28;20031;-89
2023/07/18 03:44:47;;;;;;;4.22;2.60;;;;;;;15.50;100.00;100789.44;5035198;28;20107;-88
2023/07/18 03:47:12;;;;;;;7.78;2.95;;;;;;;15.48;100.00;100777.63;5035017;28;20077;-89
2023/07/18 03:49:38;;;;;;;3.92;2.45;;;;;;;15.50;100.00;100783.69;5035091;28;20037;-88
2023/07/18 03:52:04;;;;;;;9.98;2.63;;;;;;;15.50;100.00;100783.69;5035049;28;20481;-88
2023/07/18 03:54:31;;;;;;;6.30;2.90;;;;;;;15.53;100.00;100792.06;5035152;28;20530;-87
2023/07/18 03:56:57;;;;;;;7.45;2.65;;;;;;;15.53;100.00;100789.19;5034961;28;20032;-88
2023/07/18 03:59:22;;;;;;;3.65;2.22;;;;;;;15.60;100.00;100796.59;5033552;28;20029;-88
2023/07/18 04:01:48;;;;;;;6.13;2.33;;;;;;;15.60;100.00;100806.03;5035230;28;20025;-89
2023/07/18 04:04:13;;;;;;;6.60;2.92;;;;;;;15.62;100.00;100802.59;5035556;28;20199;-87
2023/07/18 04:06:39;;;;;;;6.65;2.67;;;;;;;15.60;100.00;100799.47;5036557;28;20033;-87
2023/07/18 04:09:05;;;;;;;5.75;2.80;;;;;;;15.56;100.00;100805.44;5035325;28;20112;-89
2023/07/18 04:11:31;;;;;;;7.18;3.13;;;;;;;15.53;100.00;100799.91;5034434;28;20541;-88
2023/07/18 04:13:56;;;;;;;4.88;2.22;;;;;;;15.47;100.00;100796.22;5034696;28;20033;-88
2023/07/18 04:16:22;;;;;;;6.85;2.35;;;;;;;15.48;100.00;100804.34;5034689;28;20079;-88
2023/07/18 04:18:47;;;;;;;6.45;2.88;;;;;;;15.46;100.00;100812.72;5033204;28;20463;-86
2023/07/18 04:21:13;;;;;;;5.50;2.63;;;;;;;15.45;100.00;100807.47;5034663;28;20117;-87
2023/07/18 04:23:38;;;;;;;5.05;2.63;;;;;;;15.46;100.00;100806.97;5034809;28;20018;-88
2023/07/18 04:26:04;;;;;;;5.13;2.42;;;;;;;15.49;100.00;100813.78;5034959;28;20459;-88
2023/07/18 04:28:33;;;;;;;5.70;2.30;;;;;;;15.48;100.00;100806.44;5034278;28;20113;-88
2023/07/18 04:30:59;;;;;;;4.30;2.60;;;;;;;15.58;100.00;100816.44;5034546;28;20383;-88
2023/07/18 04:33:25;;;;;;;6.13;3.03;;;;;;;15.61;100.00;100815.47;5033212;28;20033;-88
2023/07/18 04:35:51;;;;;;;4.95;2.55;;;;;;;15.69;100.00;100816.53;5034757;28;20036;-88
2023/07/18 04:38:16;;;;;;;5.40;3.00;;;;;;;15.78;100.00;100818.41;5035406;28;20394;-88
2023/07/18 04:40:42;;;;;;;5.95;2.75;;;;;;;15.83;100.00;100827.09;5034802;28;20030;-88
2023/07/18 04:43:08;;;;;;;6.32;2.38;;;;;;;15.91;100.00;100821.63;5058282;28;20013;-88
2023/07/18 04:45:33;;;;;;;8.13;2.97;;;;;;;15.89;100.00;100818.47;5058960;28;20077;-87
2023/07/18 04:47:59;;;;;;;5.85;3.10;;;;;;;15.98;100.00;100819.03;5041852;28;20014;-82
2023/07/18 04:50:24;;;;;;;7.35;3.10;;;;;;;16.04;100.00;100824.81;5058270;28;20022;-86
2023/07/18 04:52:51;;;;;;;4.22;2.75;;;;;;;16.13;100.00;100834.03;5059047;28;20048;-85
2023/07/18 04:55:17;;;;;;;6.72;3.30;;;;;;;16.21;100.00;100828.53;5058858;28;20010;-85
2023/07/18 04:57:42;;;;;;;8.30;3.40;;;;;;;16.33;100.00;100830.16;5045553;28;20045;-88
2023/07/18 05:00:10;;;;;;;11.13;3.75;;;;;;;16.37;100.00;100833.56;5018983;28;20029;-87
2023/07/18 05:02:35;;;;;;;5.68;3.00;;;;;;;16.41;100.00;100836.19;5035204;28;20026;-87
2023/07/18 05:05:01;;;;;;;6.35;2.90;;;;;;;16.48;100.00;100829.91;5035451;28;20471;-87
2023/07/18 05:07:27;;;;;;;8.63;3.25;;;;;;;16.53;100.00;100832.84;5035444;28;20043;-88
2023/07/18 05:09:52;;;;;;;6.50;3.00;;;;;;;16.55;100.00;100830.22;5034965;28;20534;-88
2023/07/18 05:12:18;;;;;;;10.93;3.22;;;;;;;16.64;100.00;100840.75;5034406;28;20045;-88
2023/07/18 05:14:44;;;;;;;5.85;3.30;;;;;;;16.69;100.00;100848.63;5032851;28;20057;-88
2023/07/18 05:17:10;;;;;;;5.10;2.78;;;;;;;16.76;100.00;100850.97;5033704;28;20030;-86
2023/07/18 05:19:35;;;;;;;5.90;3.20;;;;;;;16.83;100.00;100852.56;5034513;28;20025;-87
2023/07/18 05:22:01;;;;;;;5.35;2.70;;;;;;;16.91;100.00;100851.50;5032948;28;20076;-88
2023/07/18 05:24:26;;;;;;;5.82;2.85;;;;;;;17.01;100.00;100859.91;5034296;28;20036;-88
2023/07/18 05:26:52;;;;;;;5.55;2.65;;;;;;;17.12;100.00;100865.69;5034142;28;20029;-88
2023/07/18 05:29:17;;;;;;;4.55;2.70;;;;;;;17.20;100.00;100864.63;5034362;28;20052;-88
2023/07/18 05:31:42;;;;;;;6.72;3.40;;;;;;;17.30;100.00;100856.47;5034488;28;20053;-88
2023/07/18 05:34:08;;;;;;;6.43;2.38;;;;;;;17.36;100.00;100863.84;5034052;28;20053;-89
2023/07/18 05:36:33;;;;;;;6.45;2.95;;;;;;;17.36;100.00;100860.16;5034232;28;20090;-87
2023/07/18 05:39:00;;;;;;;4.45;2.40;;;;;;;17.40;100.00;100852.00;5033998;28;20041;-87
2023/07/18 05:41:25;;;;;;;4.50;2.55;;;;;;;17.45;100.00;100864.91;5032987;28;20163;-87
2023/07/18 05:43:51;;;;;;;4.30;2.35;;;;;;;17.52;100.00;100856.50;5034443;28;20479;-88
2023/07/18 05:46:17;;;;;;;8.65;3.10;;;;;;;17.60;100.00;100866.19;5017078;28;20025;-88
2023/07/18 05:48:42;;;;;;;3.75;2.33;;;;;;;17.70;100.00;100861.69;5035356;28;20374;-88
2023/07/18 05:51:07;;;;;;;4.78;2.05;;;;;;;17.79;100.00;100866.41;5048562;28;20117;-88
2023/07/18 05:53:33;;;;;;;4.43;2.05;;;;;;;17.86;100.00;100871.66;5054305;28;20036;-86
2023/07/18 05:55:58;;;;;;;4.35;2.28;;;;;;;17.92;100.00;100868.75;5058161;28;20047;-87
2023/07/18 05:58:24;;;;;;;3.63;2.20;;;;;;;18.05;100.00;100872.63;5034342;28;20128;-87
2023/07/18 06:00:49;;;;;;;5.45;2.08;;;;;;;18.16;100.00;100868.91;5032947;28;20031;-85
2023/07/18 06:03:15;;;;;;;4.05;2.25;;;;;;;18.27;100.00;100874.66;5037060;28;20076;-87
2023/07/18 06:05:40;;;;;;;8.15;2.05;;;;;;;18.42;100.00;100874.34;5037684;28;20026;-86
2023/07/18 06:08:07;;;;;;;11.05;2.20;;;;;;;18.80;100.00;100876.22;5035933;28;20017;-86
2023/07/18 06:10:32;;;;;;;4.28;1.77;;;;;;;19.36;100.00;100879.47;5035831;28;20029;-85
2023/07/18 06:12:58;;;;;;;5.00;2.08;;;;;;;19.79;100.00;100876.66;5037343;28;20467;-87
2023/07/18 06:15:25;;;;;;;4.20;2.10;;;;;;;20.50;100.00;100875.56;5035631;28;20471;-87
2023/07/18 06:17:51;;;;;;;4.25;1.85;;;;;;;21.62;100.00;100878.28;5052486;28;20075;-85
2023/07/18 06:20:17;;;;;;;4.55;2.05;;;;;;;22.84;100.00;100877.84;5036900;28;20112;-85
2023/07/18 06:22:44;;;;;;;5.93;2.00;;;;;;;23.78;92.76;100884.25;5036572;28;20044;-85
2023/07/18 06:25:11;;;;;;;3.92;1.80;;;;;;;24.20;84.13;100881.19;5037149;28;20029;-86
2023/07/18 06:27:37;;;;;;;5.32;1.92;;;;;;;24.62;84.79;100888.44;5035612;28;20080;-85
2023/07/18 06:30:03;;;;;;;3.05;1.95;;;;;;;25.41;84.60;100884.56;5036492;28;20025;-85
2023/07/18 06:32:28;;;;;;;2.78;1.60;;;;;;;26.65;81.45;100875.78;5036733;28;20033;-85
2023/07/18 06:34:55;;;;;;;3.85;1.98;;;;;;;28.04;68.55;100896.38;5036170;28;20029;-85
2023/07/18 06:37:20;;;;;;;7.15;2.60;;;;;;;29.39;58.80;100906.25;5036468;28;20381;-84
2023/07/18 06:39:46;;;;;;;4.82;2.22;;;;;;;30.54;47.16;100907.38;5034973;28;20554;-85
2023/07/18 06:42:11;;;;;;;3.22;2.00;;;;;;;31.58;45.31;100907.03;5036062;28;20025;-86
2023/07/18 06:44:38;;;;;;;2.67;1.50;;;;;;;32.58;42.61;100894.91;5036238;28;20029;-84
2023/07/18 06:47:03;;;;;;;4.72;1.50;;;;;;;33.57;39.63;100900.75;5036414;28;20036;-85
2023/07/18 06:49:29;;;;;;;5.53;1.50;;;;;;;34.36;36.11;100905.75;5036246;28;20025;-84
2023/07/18 06:51:54;;;;;;;4.57;1.92;;;;;;;34.97;33.37;100906.41;5036310;28;20032;-85
2023/07/18 06:54:20;;;;;;;3.53;1.90;;;;;;;34.88;31.48;100907.38;5035908;28;20459;-84
2023/07/18 06:56:45;;;;;;;6.22;2.28;;;;;;;35.16;30.29;100903.88;5034494;28;20036;-84
2023/07/18 06:59:12;;;;;;;3.80;1.65;;;;;;;35.66;31.41;100893.31;5034439;28;20061;-85
2023/07/18 07:01:38;;;;;;;3.38;1.70;;;;;;;36.29;31.10;100906.44;5036175;28;20147;-84
2023/07/18 07:04:03;;;;;;;3.63;1.70;;;;;;;36.80;27.45;100897.94;5036074;28;20096;-85
2023/07/18 07:06:30;;;;;;;4.10;1.50;;;;;;;36.73;28.64;100883.44;5035970;28;20399;-85
2023/07/18 07:08:55;;;;;;;3.97;1.63;;;;;;;36.76;27.53;100899.97;5035816;28;20021;-85
2023/07/18 07:11:21;;;;;;;3.53;1.45;;;;;;;36.70;26.56;100893.69;5033983;28;20486;-85
2023/07/18 07:13:46;;;;;;;3.38;1.67;;;;;;;36.68;27.44;100893.59;5035335;28;20152;-84
2023/07/18 07:16:12;;;;;;;1.92;1.52;;;;;;;36.85;26.00;100892.97;5036240;28;20025;-84
2023/07/18 07:18:37;;;;;;;1.77;1.35;;;;;;;36.65;24.39;100892.72;5035945;28;20025;-85
2023/07/18 07:21:05;;;;;;;5.25;1.83;;;;;;;36.46;25.08;100893.22;5035897;28;20381;-85
2023/07/18 07:23:30;;;;;;;3.42;1.58;;;;;;;36.69;25.75;100889.16;5036250;28;20022;-85
2023/07/18 07:25:56;;;;;;;3.00;1.42;;;;;;;37.19;25.63;100891.72;5035928;28;20064;-84
2023/07/18 07:28:24;;;;;;;2.40;1.20;;;;;;;37.26;24.84;100880.88;5036415;28;20342;-83
2023/07/18 07:30:51;;;;;;;2.20;1.45;;;;;;;37.13;25.19;100881.69;5036034;28;20022;-84
2023/07/18 07:33:16;;;;;;;3.53;1.65;;;;;;;37.08;25.37;100894.88;5035996;28;20024;-84
2023/07/18 07:35:43;;;;;;;2.80;1.25;;;;;;;37.16;23.92;100886.34;5034726;28;20441;-84
2023/07/18 07:38:08;;;;;;;3.13;1.67;;;;;;;37.36;24.48;100889.56;5034405;28;20052;-85
2023/07/18 07:40:34;;;;;;;3.60;1.27;;;;;;;37.62;24.24;100884.84;5035625;28;20486;-84
2023/07/18 07:42:59;;;;;;;3.08;1.50;;;;;;;37.76;23.60;100891.50;5035388;28;20458;-85
2023/07/18 07:45:25;;;;;;;11.70;3.60;;;;;;;37.72;23.10;100876.34;5033865;28;20022;-83
2023/07/18 07:47:50;;;;;;;3.22;1.48;;;;;;;38.05;24.06;100882.41;5018079;28;20021;-84
2023/07/18 07:50:16;;;;;;;19.00;2.95;;;;;;;38.43;22.08;100874.41;5035863;28;20025;-83
2023/07/18 07:52:41;;;;;;;4.72;1.60;;;;;;;38.43;22.90;100871.41;5035603;28;20017;-84
2023/07/18 07:55:09;;;;;;;12.80;2.60;;;;;;;38.54;22.94;100879.38;5034020;28;20442;-84
2023/07/18 07:57:34;;;;;;;8.75;1.70;;;;;;;38.30;23.14;100865.59;5035126;28;20175;-84
2023/07/18 08:00:00;;;;;;;11.88;2.45;;;;;;;38.49;22.97;100874.69;5035460;28;20030;-84
2023/07/18 08:02:25;;;;;;;3.55;1.70;;;;;;;38.49;22.79;100879.88;5034513;28;20021;-84
2023/07/18 08:04:51;;;;;;;2.22;1.30;;;;;;;38.27;23.34;100876.66;5035923;28;20120;-84
2023/07/18 08:07:16;;;;;;;2.67;1.60;;;;;;;38.09;23.28;100869.88;5035961;28;20056;-84
2023/07/18 08:09:42;;;;;;;6.55;1.80;;;;;;;37.84;22.92;100865.00;5036393;28;20021;-84
2023/07/18 08:12:09;;;;;;;4.18;1.48;;;;;;;37.88;22.86;100873.38;5035359;28;20124;-83
2023/07/18 08:14:37;;;;;;;3.53;1.10;;;;;;;37.84;21.27;100873.19;5036165;28;20026;-84
2023/07/18 08:17:03;;;;;;;3.47;1.10;;;;;;;37.65;22.73;100869.34;5035988;28;20029;-84
2023/07/18 08:19:28;;;;;;;2.42;1.45;;;;;;;37.73;23.28;100854.03;5034599;28;20032;-85
2023/07/18 08:21:54;;;;;;;2.60;1.27;;;;;;;37.96;22.97;100871.56;5033191;28;20445;-83
2023/07/18 08:24:20;;;;;;;3.38;1.70;;;;;;;37.97;22.78;100864.13;5033838;28;20023;-84
2023/07/18 08:26:45;;;;;;;3.28;1.30;;;;;;;37.59;23.11;100850.38;5032610;28;20368;-84
2023/07/18 08:29:11;;;;;;;4.25;1.63;;;;;;;37.43;23.29;100865.31;5045992;28;20014;-83
2023/07/18 08:31:36;;;;;;;5.07;1.48;;;;;;;37.39;23.38;100846.44;5053895;28;20005;-82
2023/07/18 08:34:02;;;;;;;3.13;1.55;;;;;;;37.30;23.08;100852.00;5055962;28;20055;-82
2023/07/18 08:36:29;;;;;;;5.13;1.48;;;;;;;37.07;22.16;100857.56;5056366;28;20029;-82
2023/07/18 08:38:54;;;;;;;3.55;1.48;;;;;;;36.69;23.44;100839.28;5043272;28;20025;-81
2023/07/18 08:41:20;;;;;;;4.18;1.30;;;;;;;36.20;23.29;100841.94;5045634;28;20056;-82
2023/07/18 08:43:49;;;;;;;3.17;1.40;;;;;;;36.03;23.78;100839.56;5044341;28;20027;-83
2023/07/18 08:46:16;;;;;;;2.05;1.25;;;;;;;36.01;23.65;100833.50;5035562;28;20477;-85
2023/07/18 08:48:45;;;;;;;2.30;1.40;;;;;;;36.05;24.17;100845.59;5034850;28;20021;-84
2023/07/18 08:51:11;;;;;;;2.08;1.70;;;;;;;35.97;25.14;100842.19;5034337;28;20078;-85
2023/07/18 08:53:39;;;;;;;4.35;1.73;;;;;;;35.71;24.39;100840.75;5032824;28;20032;-84
2023/07/18 08:56:05;;;;;;;7.10;1.80;;;;;;;35.74;25.40;100839.44;5034090;28;20075;-84
2023/07/18 08:58:30;;;;;;;5.35;1.63;;;;;;;35.86;24.80;100828.97;5033983;28;20021;-84
2023/07/18 09:00:56;;;;;;;3.28;1.48;;;;;;;35.64;24.18;100827.00;5033533;28;20033;-84
2023/07/18 09:03:21;;;;;;;2.63;1.40;;;;;;;35.32;24.33;100834.88;5033904;28;20103;-84
2023/07/18 09:05:47;;;;;;;4.20;1.58;;;;;;;35.34;24.30;100835.78;5033862;28;20041;-84
2023/07/18 09:08:12;;;;;;;2.08;1.27;;;;;;;35.34;25.16;100817.94;5032436;28;20025;-82
2023/07/18 09:10:37;;;;;;;4.43;1.67;;;;;;;35.39;24.76;100825.66;5033758;28;20060;-84
2023/07/18 09:13:05;;;;;;;4.18;1.60;;;;;;;35.48;25.30;100812.75;5032407;28;20017;-84
2023/07/18 09:15:34;;;;;;;3.08;1.30;;;;;;;35.67;24.56;100822.69;5033561;28;20028;-84
2023/07/18 09:18:02;;;;;;;3.80;1.27;;;;;;;35.44;23.66;100806.59;5033541;28;20017;-83
2023/07/18 09:20:29;;;;;;;1.70;1.33;;;;;;;35.22;24.08;100808.31;5034232;28;20092;-84
2023/07/18 09:22:56;;;;;;;3.08;1.00;;;;;;;34.62;23.59;100806.38;5033219;28;20087;-83
2023/07/18 09:25:23;;;;;;;3.63;1.35;;;;;;;34.17;24.07;100808.88;5032454;28;20083;-83
2023/07/18 09:27:56;;;;;;;2.20;1.08;;;;;;;34.06;24.41;100800.78;5033378;28;20079;-84
2023/07/18 09:30:23;;;;;;;6.10;1.70;;;;;;;33.87;24.68;100812.91;5033466;28;20022;-84
2023/07/18 09:32:52;;;;;;;2.78;0.98;;;;;;;33.90;25.33;100805.72;5032223;28;20048;-84
2023/07/18 09:35:17;;;;;;;2.17;1.15;;;;;;;33.99;24.40;100795.09;5032208;28;20099;-82
2023/07/18 09:37:45;;;;;;;3.38;1.73;;;;;;;33.86;24.49;100790.63;5037174;28;20029;-84
2023/07/18 09:40:13;;;;;;;12.23;1.90;;;;;;;33.57;25.09;100790.28;5037398;28;20029;-84
2023/07/18 09:42:40;;;;;;;3.15;1.48;;;;;;;33.52;25.71;100804.06;5037486;28;20067;-84
2023/07/18 09:45:06;;;;;;;4.88;1.30;;;;;;;33.56;25.77;100794.66;5036373;28;20056;-84
2023/07/18 09:47:32;;;;;;;2.45;1.25;;;;;;;33.55;24.86;100790.91;5036445;28;20530;-85
2023/07/18 09:49:57;;;;;;;2.38;1.30;;;;;;;33.39;24.88;100787.69;5035880;28;20068;-84
2023/07/18 09:52:26;;;;;;;4.15;1.38;;;;;;;32.90;25.06;100780.81;5036063;28;20017;-84
2023/07/18 09:54:52;;;;;;;10.43;1.92;;;;;;;32.10;25.95;100779.09;5037007;28;20483;-84
2023/07/18 09:57:18;;;;;;;1.77;1.10;;;;;;;31.40;27.18;100778.66;5037075;28;20053;-84
2023/07/18 09:59:44;;;;;;;8.10;1.58;;;;;;;30.90;28.45;100781.66;5036850;28;20459;-85
2023/07/18 10:02:10;;;;;;;2.22;1.23;;;;;;;30.58;28.35;100783.75;5035545;28;20026;-84
2023/07/18 10:04:36;;;;;;;2.15;1.25;;;;;;;30.46;29.76;100779.13;5037865;28;20033;-83
2023/07/18 10:07:03;;;;;;;3.03;1.23;;;;;;;30.31;29.60;100777.28;5036914;28;20029;-85
2023/07/18 10:09:30;;;;;;;3.15;1.42;;;;;;;30.33;29.40;100785.47;5035752;28;20364;-84
2023/07/18 10:11:58;;;;;;;1.83;0.95;;;;;;;30.35;28.97;100762.81;5036583;28;20050;-85
2023/07/18 10:14:56;;;;;;;4.43;1.50;;;;;;;30.33;31.24;100756.75;5036945;28;20372;-85
2023/07/18 10:17:35;;;;;;;1.10;1.00;;;;;;;30.40;29.24;100769.81;5036786;28;20064;-85
2023/07/18 10:20:12;;;;;;;3.22;1.80;;;;;;;30.29;30.35;100768.25;5036955;28;20041;-85
2023/07/18 10:22:45;;;;;;;2.33;1.10;;;;;;;30.16;29.98;100756.19;5036573;28;20109;-85
2023/07/18 10:25:11;;;;;;;2.03;1.20;;;;;;;29.95;29.54;100754.59;5035578;28;20044;-85
2023/07/18 10:27:42;;;;;;;11.07;1.70;;;;;;;29.68;31.45;100745.88;5036375;28;20029;-86
2023/07/18 10:30:09;;;;;;;4.32;1.40;;;;;;;29.46;29.87;100747.09;5035240;28;20036;-83
2023/07/18 10:32:37;;;;;;;6.25;1.17;;;;;;;29.22;29.77;100748.13;5036724;28;20025;-85
2023/07/18 10:35:15;;;;;;;4.60;1.40;;;;;;;29.04;31.63;100750.38;5036271;28;20076;-86
2023/07/18 10:37:44;;;;;;;4.53;1.15;;;;;;;29.01;31.68;100739.00;5036382;28;20029;-85
2023/07/18 10:40:10;;;;;;;11.15;1.60;;;;;;;28.91;31.87;100741.16;5034977;28;20037;-85
2023/07/18 10:42:36;;;;;;;3.08;1.35;;;;;;;28.61;32.11;100733.56;5036207;28;20026;-86
2023/07/18 10:45:06;;;;;;;8.25;1.65;;;;;;;28.47;31.52;100732.41;5035173;28;20021;-85
2023/07/18 10:47:35;;;;;;;6.90;1.80;;;;;;;28.30;31.89;100728.09;5034299;28;20045;-85
2023/07/18 10:50:00;;;;;;;4.57;1.30;;;;;;;28.25;33.79;100729.16;5036056;28;20105;-86
2023/07/18 10:52:26;;;;;;;3.80;1.48;;;;;;;28.17;32.55;100716.72;5036072;28;20080;-84
2023/07/18 10:54:58;;;;;;;6.85;1.52;;;;;;;28.03;33.11;100721.41;5036072;28;20096;-84
2023/07/18 10:57:24;;;;;;;2.25;1.45;;;;;;;27.73;32.99;100710.00;5036183;28;20467;-85
2023/07/18 10:59:50;;;;;;;2.25;1.15;;;;;;;27.58;33.16;100713.91;5036039;28;20038;-86
2023/07/18 11:02:15;;;;;;;6.57;1.65;;;;;;;27.47;33.61;100709.31;5036327;28;20124;-87
2023/07/18 11:04:41;;;;;;;4.47;1.90;;;;;;;27.35;35.83;100704.56;5034525;28;20112;-85
2023/07/18 11:07:09;;;;;;;3.72;1.42;;;;;;;27.32;35.15;100702.81;5034508;28;20029;-85
2023/07/18 11:09:35;;;;;;;3.85;1.40;;;;;;;27.29;35.06;100704.00;5036004;28;20445;-87
2023/07/18 11:12:00;;;;;;;3.15;1.55;;;;;;;27.22;34.06;100698.97;5035460;28;20084;-85
2023/07/18 11:14:40;;;;;;;3.33;1.40;;;;;;;27.13;35.18;100692.41;5036179;28;20068;-85
2023/07/18 11:17:13;;;;;;;2.00;1.13;;;;;;;26.97;35.76;100691.00;5035846;28;20033;-86